createdAt,value
2022-12-14T00:01:21.949Z,14.45
2022-12-14T00:03:51.840Z,14.02
2022-12-14T00:06:24.467Z,14.27
2022-12-14T00:08:57.159Z,14.00
2022-12-14T00:11:25.856Z,14.15
2022-12-14T00:13:55.697Z,15.63
2022-12-14T00:16:28.736Z,12.10
2022-12-14T00:19:00.856Z,13.43
2022-12-14T00:21:35.617Z,16.23
2022-12-14T00:24:04.208Z,12.23
2022-12-14T00:26:34.095Z,14.10
2022-12-14T00:29:05.446Z,16.55
2022-12-14T00:31:36.669Z,14.40
2022-12-14T00:34:05.233Z,19.02
2022-12-14T00:36:33.838Z,23.33
2022-12-14T00:39:03.362Z,15.52
2022-12-14T00:41:32.146Z,14.88
2022-12-14T00:44:00.688Z,15.65
2022-12-14T00:46:36.647Z,17.42
2022-12-14T00:49:12.438Z,15.93
2022-12-14T00:51:43.222Z,14.52
2022-12-14T00:54:12.890Z,14.45
2022-12-14T00:56:41.417Z,14.50
2022-12-14T00:59:11.276Z,13.77
2022-12-14T01:01:41.416Z,13.30
2022-12-14T01:04:19.912Z,12.00
2022-12-14T01:06:52.786Z,12.52
2022-12-14T01:09:23.509Z,12.55
2022-12-14T01:11:53.657Z,10.90
2022-12-14T01:14:25.134Z,11.45
2022-12-14T01:16:57.244Z,9.93
2022-12-14T01:19:25.927Z,12.52
2022-12-14T01:21:55.557Z,14.30
2022-12-14T01:24:25.175Z,12.23
2022-12-14T01:26:59.766Z,13.25
2022-12-14T01:29:28.407Z,13.73
2022-12-14T01:31:59.437Z,12.98
2022-12-14T01:34:27.945Z,13.80
2022-12-14T01:37:15.756Z,10.15
2022-12-14T01:39:46.457Z,11.82
2022-12-14T01:42:18.228Z,9.73
2022-12-14T01:44:59.264Z,8.35
2022-12-14T01:47:35.836Z,8.50
2022-12-14T01:50:47.749Z,7.22
2022-12-14T01:53:22.564Z,6.00
2022-12-14T01:55:58.267Z,4.90
2022-12-14T01:58:34.058Z,8.23
2022-12-14T02:01:04.493Z,6.45
2022-12-14T02:03:38.529Z,7.43
2022-12-14T02:06:12.186Z,4.55
2022-12-14T02:08:44.855Z,5.68
2022-12-14T02:11:13.824Z,8.05
2022-12-14T02:13:49.024Z,11.25
2022-12-14T02:16:17.753Z,5.75
2022-12-14T02:18:49.228Z,5.32
2022-12-14T02:21:26.426Z,6.30
2022-12-14T02:24:24.175Z,5.28
2022-12-14T02:27:16.806Z,6.10
2022-12-14T02:30:12.569Z,6.90
2022-12-14T02:33:10.108Z,5.32
2022-12-14T02:35:49.648Z,6.30
2022-12-14T02:38:51.147Z,7.38
2022-12-14T02:41:27.730Z,6.68
2022-12-14T02:44:07.269Z,7.15
2022-12-14T02:46:48.733Z,8.50
2022-12-14T02:49:35.301Z,8.35
2022-12-14T02:52:12.735Z,7.07
2022-12-14T02:54:56.650Z,9.90
2022-12-14T02:57:29.975Z,7.40
2022-12-14T03:00:02.918Z,4.95
2022-12-14T03:02:38.956Z,7.55
2022-12-14T03:05:08.046Z,6.82
2022-12-14T03:07:44.194Z,7.25
2022-12-14T03:10:34.364Z,6.38
2022-12-14T03:13:17.239Z,10.57
2022-12-14T03:15:52.241Z,5.47
2022-12-14T03:18:26.209Z,6.63
2022-12-14T03:20:57.678Z,7.60
2022-12-14T03:23:31.335Z,5.47
2022-12-14T03:26:09.508Z,6.45
2022-12-14T03:28:46.068Z,5.07
2022-12-14T03:31:20.729Z,5.07
2022-12-14T03:33:56.078Z,7.05
2022-12-14T03:36:32.061Z,7.05
2022-12-14T03:39:04.585Z,6.47
2022-12-14T03:41:48.756Z,7.88
2022-12-14T03:44:30.428Z,6.18
2022-12-14T03:47:07.154Z,6.88
2022-12-14T03:49:56.408Z,6.25
2022-12-14T03:52:32.508Z,10.60
2022-12-14T03:55:11.067Z,6.88
2022-12-14T03:57:58.154Z,10.73
2022-12-14T04:00:34.166Z,6.85
2022-12-14T04:03:12.158Z,4.63
2022-12-14T04:05:49.355Z,6.50
2022-12-14T04:08:26.308Z,7.68
2022-12-14T04:11:16.699Z,6.65
2022-12-14T04:14:09.490Z,4.65
2022-12-14T04:17:01.905Z,5.70
2022-12-14T04:19:40.419Z,6.78
2022-12-14T04:22:14.807Z,5.85
2022-12-14T04:25:10.128Z,3.83
2022-12-14T04:27:42.408Z,3.38
2022-12-14T04:30:12.933Z,5.95
2022-12-14T04:32:50.454Z,9.57
2022-12-14T04:35:24.796Z,3.97
2022-12-14T04:38:01.388Z,5.97
2022-12-14T04:40:35.047Z,7.35
2022-12-14T04:43:09.666Z,5.22
2022-12-14T04:45:46.962Z,5.82
2022-12-14T04:48:23.427Z,2.85
2022-12-14T04:51:01.599Z,3.05
2022-12-14T04:53:36.398Z,4.88
2022-12-14T04:56:14.566Z,5.35
2022-12-14T04:58:44.737Z,5.60
2022-12-14T05:01:33.382Z,3.25
2022-12-14T05:04:12.687Z,4.43
2022-12-14T05:06:48.597Z,7.80
2022-12-14T05:09:26.437Z,4.15
2022-12-14T05:12:02.311Z,4.20
2022-12-14T05:14:37.637Z,5.60
2022-12-14T05:17:09.701Z,7.70
2022-12-14T05:19:48.525Z,4.65
2022-12-14T05:22:19.161Z,6.65
2022-12-14T05:24:50.356Z,7.78
2022-12-14T05:27:20.008Z,9.77
2022-12-14T05:29:48.698Z,3.92
2022-12-14T05:32:19.270Z,5.82
2022-12-14T05:34:50.638Z,6.00
2022-12-14T05:37:26.568Z,4.63
2022-12-14T05:39:56.777Z,8.68
2022-12-14T05:42:27.377Z,8.50
2022-12-14T05:44:55.998Z,8.68
2022-12-14T05:47:24.786Z,7.28
2022-12-14T05:49:53.386Z,6.10
2022-12-14T05:52:26.787Z,7.05
2022-12-14T05:55:02.327Z,5.43
2022-12-14T05:57:33.226Z,9.60
2022-12-14T06:00:06.377Z,6.80
2022-12-14T06:02:34.951Z,5.82
2022-12-14T06:05:03.568Z,6.57
2022-12-14T06:07:32.079Z,5.25
2022-12-14T06:10:03.069Z,5.38
2022-12-14T06:12:32.537Z,8.65
2022-12-14T06:15:01.209Z,5.93
2022-12-14T06:17:30.067Z,12.95
2022-12-14T06:19:59.627Z,8.45
2022-12-14T06:22:28.209Z,7.15
2022-12-14T06:24:57.863Z,4.50
2022-12-14T06:27:28.856Z,4.85
2022-12-14T06:30:04.337Z,9.98
2022-12-14T06:32:32.898Z,12.15
2022-12-14T06:35:02.450Z,5.85
2022-12-14T06:37:33.379Z,10.75
2022-12-14T06:40:03.949Z,6.07
2022-12-14T06:42:35.189Z,11.07
2022-12-14T06:45:08.137Z,3.55
2022-12-14T06:47:38.666Z,9.98
2022-12-14T06:50:08.007Z,5.05
2022-12-14T06:52:37.728Z,2.22
2022-12-14T06:55:07.416Z,8.00
2022-12-14T06:57:37.636Z,6.03
2022-12-14T07:00:06.987Z,7.53
2022-12-14T07:02:38.447Z,6.43
2022-12-14T07:05:08.183Z,7.18
2022-12-14T07:07:37.631Z,9.57
2022-12-14T07:10:10.617Z,4.55
2022-12-14T07:12:40.649Z,8.13
2022-12-14T07:15:11.394Z,7.25
2022-12-14T07:17:39.919Z,10.05
2022-12-14T07:20:10.829Z,4.22
2022-12-14T07:22:39.387Z,8.70
2022-12-14T07:25:10.408Z,5.32
2022-12-14T07:27:40.361Z,5.70
2022-12-14T07:30:11.571Z,7.70
2022-12-14T07:32:40.408Z,4.55
2022-12-14T07:35:16.354Z,6.95
2022-12-14T07:37:49.105Z,6.57
2022-12-14T07:40:18.050Z,12.52
2022-12-14T07:42:51.914Z,7.05
2022-12-14T07:45:20.558Z,8.95
2022-12-14T07:47:49.240Z,6.35
2022-12-14T07:50:17.884Z,7.95
2022-12-14T07:52:46.712Z,7.53
2022-12-14T07:55:17.005Z,5.95
2022-12-14T07:57:46.305Z,6.03
2022-12-14T08:00:19.418Z,6.45
2022-12-14T08:02:48.216Z,7.97
2022-12-14T08:05:17.065Z,6.35
2022-12-14T08:07:46.029Z,11.63
2022-12-14T08:10:18.366Z,9.77
2022-12-14T08:12:51.777Z,3.67
2022-12-14T08:15:22.008Z,6.43
2022-12-14T08:17:51.660Z,6.68
2022-12-14T08:20:31.287Z,3.45
2022-12-14T08:23:07.175Z,5.10
2022-12-14T08:25:37.215Z,4.10
2022-12-14T08:28:06.814Z,5.70
2022-12-14T08:30:51.594Z,7.03
2022-12-14T08:33:25.384Z,4.15
2022-12-14T08:36:07.761Z,6.82
2022-12-14T08:38:37.738Z,10.32
2022-12-14T08:41:10.501Z,5.00
2022-12-14T08:43:51.598Z,4.65
2022-12-14T08:46:29.558Z,2.22
2022-12-14T08:49:05.853Z,7.93
2022-12-14T08:52:04.209Z,6.13
2022-12-14T08:54:33.955Z,4.47
2022-12-14T08:57:04.885Z,3.17
2022-12-14T09:00:00.283Z,5.72
2022-12-14T09:02:25.198Z,9.30
2022-12-14T09:04:57.641Z,5.28
2022-12-14T09:07:29.301Z,8.80
2022-12-14T09:09:57.778Z,4.32
2022-12-14T09:12:27.663Z,5.60
2022-12-14T09:14:58.903Z,7.60
2022-12-14T09:17:30.347Z,9.07
2022-12-14T09:20:00.222Z,4.55
2022-12-14T09:22:35.257Z,7.45
2022-12-14T09:25:05.596Z,7.63
2022-12-14T09:27:35.438Z,6.70
2022-12-14T09:30:05.241Z,4.68
2022-12-14T09:32:41.758Z,5.05
2022-12-14T09:35:11.712Z,6.72
2022-12-14T09:37:40.984Z,5.38
2022-12-14T09:40:14.974Z,9.55
2022-12-14T09:42:58.533Z,10.57
2022-12-14T09:45:48.853Z,5.45
2022-12-14T09:48:26.732Z,4.15
2022-12-14T09:51:00.523Z,7.25
2022-12-14T09:53:30.006Z,7.75
2022-12-14T09:56:00.691Z,7.28
2022-12-14T09:58:33.375Z,3.50
2022-12-14T10:01:16.668Z,5.95
2022-12-14T10:03:59.834Z,6.93
2022-12-14T10:06:38.214Z,4.10
2022-12-14T10:09:16.928Z,5.53
2022-12-14T10:12:00.683Z,6.30
2022-12-14T10:14:44.368Z,6.80
2022-12-14T10:17:30.686Z,5.45
2022-12-14T10:20:06.309Z,6.07
2022-12-14T10:22:40.441Z,8.35
2022-12-14T10:25:16.178Z,8.13
2022-12-14T10:28:10.348Z,4.32
2022-12-14T10:30:43.885Z,9.05
2022-12-14T10:33:19.759Z,7.40
2022-12-14T10:35:53.411Z,5.63
2022-12-14T10:38:28.560Z,10.40
2022-12-14T10:41:04.842Z,10.25
2022-12-14T10:43:46.235Z,4.78
2022-12-14T10:46:22.900Z,5.97
2022-12-14T10:48:58.517Z,8.32
2022-12-14T10:51:37.541Z,6.70
2022-12-14T10:54:17.298Z,12.65
2022-12-14T10:56:58.625Z,10.95
2022-12-14T10:59:40.570Z,8.15
2022-12-14T11:02:17.942Z,7.60
2022-12-14T11:04:51.951Z,7.00
2022-12-14T11:07:24.768Z,4.05
2022-12-14T11:09:54.179Z,7.97
2022-12-14T11:12:26.149Z,6.00
2022-12-14T11:14:58.439Z,6.70
2022-12-14T11:17:39.606Z,6.15
2022-12-14T11:20:23.575Z,7.03
2022-12-14T11:22:55.556Z,4.95
2022-12-14T11:25:38.199Z,8.60
2022-12-14T11:28:20.229Z,9.55
2022-12-14T11:30:59.002Z,6.03
2022-12-14T11:33:33.730Z,4.90
2022-12-14T11:36:03.138Z,9.68
2022-12-14T11:38:34.740Z,6.80
2022-12-14T11:41:11.092Z,6.60
2022-12-14T11:43:42.200Z,7.50
2022-12-14T11:46:11.063Z,9.57
2022-12-14T11:48:49.369Z,8.00
2022-12-14T11:51:19.075Z,12.95
2022-12-14T11:54:04.678Z,10.55
2022-12-14T11:56:33.301Z,10.25
2022-12-14T11:59:01.957Z,6.25
2022-12-14T12:01:30.803Z,6.55
2022-12-14T12:04:01.567Z,10.30
2022-12-14T12:06:31.590Z,7.47
2022-12-14T12:09:03.943Z,6.32
2022-12-14T12:11:36.533Z,4.60
2022-12-14T12:14:09.165Z,7.00
2022-12-14T12:16:46.207Z,7.75
2022-12-14T12:19:24.726Z,6.30
2022-12-14T12:21:55.485Z,8.13
2022-12-14T12:24:31.037Z,6.55
2022-12-14T12:27:03.668Z,10.82
2022-12-14T12:29:43.385Z,3.78
2022-12-14T12:32:20.691Z,6.82
2022-12-14T12:34:57.251Z,6.35
2022-12-14T12:37:33.258Z,7.43
2022-12-14T12:40:13.158Z,6.10
2022-12-14T12:42:48.180Z,9.23
2022-12-14T12:45:22.657Z,6.35
2022-12-14T12:47:57.864Z,9.63
2022-12-14T12:50:31.756Z,9.90
2022-12-14T12:53:05.259Z,5.38
2022-12-14T12:55:42.302Z,2.80
2022-12-14T12:58:21.330Z,8.55
2022-12-14T13:00:55.943Z,6.13
2022-12-14T13:03:28.848Z,7.43
2022-12-14T13:06:05.226Z,2.55
2022-12-14T13:08:40.342Z,11.27
2022-12-14T13:11:32.607Z,6.40
2022-12-14T13:14:07.258Z,5.38
2022-12-14T13:16:42.914Z,8.23
2022-12-14T13:22:15.242Z,8.90
2022-12-14T13:24:58.684Z,6.05
2022-12-14T13:27:51.113Z,6.85
2022-12-14T13:30:26.353Z,8.75
2022-12-14T13:33:14.813Z,5.13
2022-12-14T13:35:59.207Z,4.53
2022-12-14T13:38:48.338Z,7.18
2022-12-14T13:41:29.189Z,6.88
2022-12-14T13:44:34.666Z,10.27
2022-12-14T13:47:14.623Z,5.97
2022-12-14T13:52:46.102Z,5.97
2022-12-14T13:55:32.665Z,9.02
2022-12-14T13:58:21.257Z,7.32
2022-12-14T14:01:01.291Z,7.80
2022-12-14T14:03:51.269Z,6.88
2022-12-14T14:06:37.253Z,9.73
2022-12-14T14:09:41.607Z,6.20
2022-12-14T14:12:46.018Z,6.55
2022-12-14T14:15:33.935Z,7.78
2022-12-14T14:18:17.291Z,6.05
2022-12-14T14:20:53.768Z,9.48
2022-12-14T14:23:41.160Z,8.57
2022-12-14T14:26:24.992Z,6.82
2022-12-14T14:29:25.884Z,6.60
2022-12-14T14:31:58.582Z,6.75
2022-12-14T14:34:37.782Z,6.95
2022-12-14T14:37:27.731Z,6.82
2022-12-14T14:40:16.832Z,9.63
2022-12-14T14:42:55.001Z,10.70
2022-12-14T14:45:35.944Z,8.82
2022-12-14T14:48:12.915Z,8.73
2022-12-14T14:50:48.779Z,9.10
2022-12-14T14:53:37.386Z,7.47
2022-12-14T14:56:44.631Z,5.22
2022-12-14T14:59:50.959Z,11.77
2022-12-14T15:02:42.910Z,10.57
2022-12-14T15:08:20.943Z,19.55
2022-12-14T15:10:52.242Z,10.10
2022-12-14T15:13:26.065Z,12.63
2022-12-14T15:15:56.982Z,9.02
2022-12-14T15:18:28.131Z,10.55
2022-12-14T15:21:02.646Z,8.85
2022-12-14T15:23:38.283Z,12.20
2022-12-14T15:26:16.946Z,10.68
2022-12-14T15:28:50.981Z,6.63
2022-12-14T15:31:29.377Z,6.95
2022-12-14T15:33:59.606Z,11.75
2022-12-14T15:36:32.389Z,14.20
2022-12-14T15:39:06.105Z,10.13
2022-12-14T15:41:35.705Z,10.35
2022-12-14T15:44:05.579Z,13.38
2022-12-14T15:46:39.067Z,11.30
2022-12-14T15:49:09.586Z,10.68
2022-12-14T15:51:42.068Z,9.02
2022-12-14T15:54:21.500Z,12.38
2022-12-14T15:56:53.195Z,12.88
2022-12-14T15:59:25.348Z,14.43
2022-12-14T16:02:06.386Z,12.70
2022-12-14T16:04:38.345Z,16.50
2022-12-14T16:07:15.009Z,14.70
2022-12-14T16:09:50.077Z,18.17
2022-12-14T16:12:25.360Z,20.50
2022-12-14T16:15:02.714Z,23.20
2022-12-14T16:17:35.779Z,16.33
2022-12-14T16:20:21.364Z,17.50
2022-12-14T16:23:06.272Z,21.02
2022-12-14T16:25:38.753Z,15.02
2022-12-14T16:28:31.781Z,14.55
2022-12-14T16:31:05.039Z,13.88
2022-12-14T16:33:36.911Z,10.82
2022-12-14T16:36:09.973Z,19.75
2022-12-14T16:38:43.561Z,16.88
2022-12-14T16:41:13.694Z,14.85
2022-12-14T16:43:43.952Z,13.07
2022-12-14T16:46:18.966Z,9.30
2022-12-14T16:49:04.452Z,11.40
2022-12-14T16:54:31.469Z,12.30
2022-12-14T16:57:08.026Z,18.92
2022-12-14T16:59:43.335Z,13.05
2022-12-14T17:02:30.624Z,15.35
2022-12-14T17:05:02.716Z,15.30
2022-12-14T17:07:36.624Z,24.15
2022-12-14T17:10:05.861Z,20.92
2022-12-14T17:12:36.324Z,17.88
2022-12-14T17:15:05.805Z,15.07
2022-12-14T17:17:37.629Z,17.27
2022-12-14T17:20:13.872Z,19.45
2022-12-14T17:22:49.459Z,16.55
2022-12-14T17:25:19.047Z,15.77
2022-12-14T17:27:51.692Z,9.52
2022-12-14T17:30:25.242Z,15.40
2022-12-14T17:32:56.026Z,14.27
2022-12-14T17:35:28.970Z,13.15
2022-12-14T17:38:14.502Z,14.07
2022-12-14T17:40:43.572Z,21.52
2022-12-14T17:43:16.267Z,15.52
2022-12-14T17:45:45.593Z,20.33
2022-12-14T17:48:15.311Z,16.63
2022-12-14T17:50:47.811Z,18.98
2022-12-14T17:53:17.961Z,20.20
2022-12-14T17:55:46.722Z,19.88
2022-12-14T17:58:17.265Z,20.38
2022-12-14T18:01:03.419Z,16.98
2022-12-14T18:03:36.643Z,19.92
2022-12-14T18:06:06.390Z,18.67
2022-12-14T18:08:34.994Z,17.98
2022-12-14T18:11:11.825Z,18.23
2022-12-14T18:13:44.861Z,21.10
2022-12-14T18:16:21.848Z,19.80
2022-12-14T18:18:51.344Z,16.33
2022-12-14T18:21:23.258Z,20.77
2022-12-14T18:23:53.572Z,18.02
2022-12-14T18:26:24.051Z,17.83
2022-12-14T18:28:58.980Z,20.08
2022-12-14T18:31:36.577Z,16.27
2022-12-14T18:34:07.068Z,16.98
2022-12-14T18:36:35.565Z,17.05
2022-12-14T18:39:05.500Z,17.17
2022-12-14T18:41:35.887Z,22.02
2022-12-14T18:44:07.557Z,24.85
2022-12-14T18:46:40.217Z,17.88
2022-12-14T18:49:13.747Z,24.00
2022-12-14T18:51:47.691Z,22.02
2022-12-14T18:54:23.054Z,18.40
2022-12-14T18:56:54.022Z,20.15
2022-12-14T18:59:34.528Z,16.90
2022-12-14T19:02:10.298Z,22.77
2022-12-14T19:04:45.251Z,20.90
2022-12-14T19:07:28.392Z,20.35
2022-12-14T19:10:03.265Z,19.95
2022-12-14T19:12:44.729Z,28.65
2022-12-14T19:15:33.339Z,28.50
2022-12-14T19:18:04.122Z,24.23
2022-12-14T19:20:35.710Z,30.58
2022-12-14T19:23:06.904Z,26.67
2022-12-14T19:25:38.048Z,32.60
2022-12-14T19:30:59.505Z,34.95
2022-12-14T19:33:29.112Z,43.13
2022-12-14T19:36:01.285Z,29.40
2022-12-14T19:38:33.888Z,31.02
2022-12-14T19:41:07.813Z,25.92
2022-12-14T19:43:42.895Z,26.02
2022-12-14T19:46:17.402Z,16.98
2022-12-14T19:48:46.867Z,15.75
2022-12-14T19:51:16.788Z,20.77
2022-12-14T19:53:53.441Z,15.68
2022-12-14T19:56:25.060Z,17.98
2022-12-14T19:58:58.074Z,16.98
2022-12-14T20:01:46.255Z,19.05
2022-12-14T20:04:17.611Z,15.25
2022-12-14T20:06:46.461Z,17.38
2022-12-14T20:09:17.081Z,17.27
2022-12-14T20:11:46.972Z,18.55
2022-12-14T20:14:15.870Z,13.25
2022-12-14T20:16:46.130Z,18.08
2022-12-14T20:19:15.140Z,13.32
2022-12-14T20:21:43.825Z,18.30
2022-12-14T20:24:13.196Z,16.60
2022-12-14T20:26:41.789Z,14.35
2022-12-14T20:29:10.649Z,17.35
2022-12-14T20:31:40.680Z,12.50
2022-12-14T20:34:11.940Z,13.13
2022-12-14T20:36:40.599Z,12.35
2022-12-14T20:39:09.994Z,13.70
2022-12-14T20:41:38.867Z,13.63
2022-12-14T20:44:12.072Z,17.10
2022-12-14T20:46:43.350Z,14.43
2022-12-14T20:49:16.075Z,18.30
2022-12-14T20:51:45.898Z,19.00
2022-12-14T20:54:16.163Z,14.93
2022-12-14T20:56:45.221Z,16.63
2022-12-14T20:59:18.456Z,14.38
2022-12-14T21:01:53.558Z,19.95
2022-12-14T21:04:26.561Z,24.33
2022-12-14T21:06:56.676Z,21.65
2022-12-14T21:09:27.520Z,16.23
2022-12-14T21:12:15.143Z,16.35
2022-12-14T21:14:47.951Z,25.48
2022-12-14T21:17:18.043Z,22.30
2022-12-14T21:19:48.250Z,20.98
2022-12-14T21:22:20.434Z,19.27
2022-12-14T21:25:06.158Z,21.27
2022-12-14T21:27:39.452Z,19.77
2022-12-14T21:30:11.530Z,22.15
2022-12-14T21:32:40.677Z,17.20
2022-12-14T21:35:13.976Z,18.90
2022-12-14T21:37:42.542Z,17.73
2022-12-14T21:40:32.701Z,15.38
2022-12-14T21:43:01.527Z,17.42
2022-12-14T21:45:38.217Z,17.98
2022-12-14T21:48:08.439Z,14.35
2022-12-14T21:50:38.509Z,20.88
2022-12-14T21:53:07.062Z,15.13
2022-12-14T21:55:35.645Z,16.85
2022-12-14T21:58:16.246Z,18.00
2022-12-14T22:00:45.230Z,19.45
2022-12-14T22:03:14.042Z,17.05
2022-12-14T22:05:44.083Z,15.98
2022-12-14T22:08:12.825Z,15.02
2022-12-14T22:10:41.351Z,16.40
2022-12-14T22:13:10.518Z,14.65
2022-12-14T22:15:39.062Z,15.82
2022-12-14T22:18:08.020Z,16.92
2022-12-14T22:20:36.593Z,14.70
2022-12-14T22:23:06.987Z,13.55
2022-12-14T22:25:35.849Z,13.57
2022-12-14T22:28:04.420Z,16.42
2022-12-14T22:30:33.031Z,15.65
2022-12-14T22:33:01.638Z,12.63
2022-12-14T22:35:30.524Z,16.15
2022-12-14T22:38:06.031Z,12.98
2022-12-14T22:40:36.663Z,16.20
2022-12-14T22:43:05.359Z,20.88
2022-12-14T22:45:36.367Z,13.77
2022-12-14T22:48:07.344Z,17.73
2022-12-14T22:50:37.190Z,18.63
2022-12-14T22:53:05.846Z,22.10
2022-12-14T22:55:39.266Z,20.33
2022-12-14T22:58:12.381Z,21.05
2022-12-14T23:00:40.929Z,25.60
2022-12-14T23:03:09.875Z,25.95
2022-12-14T23:05:39.199Z,24.08
2022-12-14T23:08:07.859Z,25.95
2022-12-14T23:10:54.832Z,24.85
2022-12-14T23:13:41.077Z,15.95
2022-12-14T23:16:27.066Z,18.17
2022-12-14T23:19:13.088Z,21.45
2022-12-14T23:21:59.120Z,15.38
2022-12-14T23:24:44.749Z,14.20
2022-12-14T23:27:32.135Z,14.13
2022-12-14T23:30:18.166Z,28.60
2022-12-14T23:33:03.796Z,90.38
2022-12-14T23:35:50.070Z,61.65
2022-12-14T23:38:36.157Z,31.70
2022-12-14T23:41:22.289Z,57.65
2022-12-14T23:44:09.468Z,67.63
2022-12-14T23:46:55.706Z,45.75
2022-12-14T23:49:41.575Z,22.15
2022-12-14T23:52:27.117Z,25.50
2022-12-14T23:55:12.880Z,49.38
2022-12-14T23:57:58.320Z,44.90
